Time;durP1;ratioP1;P1;durP2;ratioP2;P2;SDS_P1;SDS_P2;PMS_P1;PMS_P2;Temp;Humidity;BMP_temperature;BMP_pressure;BME280_temperature;BME280_humidity;BME280_pressure;Samples;Min_cycle;Max_cycle;Signal;HPM_P1;HPM_P2
2024/04/24 00:01:26;;;;;;;25.97;22.50;;;;;;;;;;5207169;27;20581;-82
2024/04/24 00:03:52;;;;;;;25.27;22.77;;;;;;;;;;5210879;27;20585;-82
2024/04/24 00:06:18;;;;;;;24.10;21.90;;;;;;;;;;5207706;27;20467;-82
2024/04/24 00:08:44;;;;;;;25.83;23.20;;;;;;;;;;5214829;27;20561;-82
2024/04/24 00:11:10;;;;;;;25.33;23.03;;;;;;;;;;5206965;27;20250;-82
2024/04/24 00:13:36;;;;;;;24.73;22.43;;;;;;;;;;5212758;27;20464;-81
2024/04/24 00:16:02;;;;;;;24.90;22.40;;;;;;;;;;5209653;27;20478;-81
2024/04/24 00:18:28;;;;;;;24.17;21.77;;;;;;;;;;5216506;27;21082;-82
2024/04/24 00:20:55;;;;;;;23.17;20.90;;;;;;;;;;5194612;27;20291;-82
2024/04/24 00:23:21;;;;;;;24.70;22.25;;;;;;;;;;5212417;27;20532;-82
2024/04/24 00:25:48;;;;;;;23.43;21.00;;;;;;;;;;5204876;27;20252;-82
2024/04/24 00:28:14;;;;;;;23.65;21.30;;;;;;;;;;5216358;27;20820;-82
2024/04/24 00:30:40;;;;;;;24.77;22.27;;;;;;;;;;5195458;27;20291;-82
2024/04/24 00:33:06;;;;;;;23.80;21.60;;;;;;;;;;5225464;27;20248;-82
2024/04/24 00:35:32;;;;;;;22.92;20.92;;;;;;;;;;5208486;27;20549;-81
2024/04/24 00:37:58;;;;;;;23.37;21.27;;;;;;;;;;5213359;27;20361;-82
2024/04/24 00:40:24;;;;;;;24.52;21.77;;;;;;;;;;5208623;27;20522;-82
2024/04/24 00:42:50;;;;;;;24.13;21.33;;;;;;;;;;5210680;27;20237;-81
2024/04/24 00:45:15;;;;;;;21.67;19.53;;;;;;;;;;5206738;27;20486;-82
2024/04/24 00:47:41;;;;;;;22.77;20.70;;;;;;;;;;5208555;27;20537;-82
2024/04/24 00:50:12;;;;;;;23.38;19.95;;;;;;;;;;5199628;27;20874;-81
2024/04/24 00:52:38;;;;;;;23.42;19.45;;;;;;;;;;5204300;27;20284;-82
2024/04/24 00:55:05;;;;;;;23.08;20.52;;;;;;;;;;5225609;27;20593;-82
2024/04/24 00:57:31;;;;;;;30.10;20.52;;;;;;;;;;5222101;27;20244;-82
2024/04/24 00:59:57;;;;;;;21.25;19.13;;;;;;;;;;5188105;27;20597;-82
2024/04/24 01:02:23;;;;;;;21.92;19.83;;;;;;;;;;5177154;27;20733;-82
2024/04/24 01:04:49;;;;;;;20.50;18.77;;;;;;;;;;5205821;27;20337;-82
2024/04/24 01:07:15;;;;;;;20.57;18.60;;;;;;;;;;5220945;27;20470;-82
2024/04/24 01:09:41;;;;;;;19.77;17.20;;;;;;;;;;5218617;27;20506;-82
2024/04/24 01:12:07;;;;;;;20.13;18.20;;;;;;;;;;5211490;27;20294;-82
2024/04/24 01:14:33;;;;;;;18.53;16.70;;;;;;;;;;5207301;27;20522;-83
2024/04/24 01:17:01;;;;;;;19.02;17.23;;;;;;;;;;5205809;27;20463;-82
2024/04/24 01:19:27;;;;;;;18.92;17.08;;;;;;;;;;5219992;27;20303;-82
2024/04/24 01:22:19;;;;;;;18.13;16.43;;;;;;;;;;5221863;27;20245;-82
2024/04/24 01:24:47;;;;;;;18.90;16.95;;;;;;;;;;5176205;27;20563;-83
2024/04/24 01:27:13;;;;;;;18.60;16.65;;;;;;;;;;5212054;27;20230;-83
2024/04/24 01:29:39;;;;;;;17.27;15.57;;;;;;;;;;5213417;27;20257;-82
2024/04/24 01:32:05;;;;;;;17.37;15.60;;;;;;;;;;5203436;27;20289;-82
2024/04/24 01:34:31;;;;;;;15.52;14.07;;;;;;;;;;5218949;27;20515;-83
2024/04/24 01:36:57;;;;;;;16.35;14.63;;;;;;;;;;5218026;27;20237;-82
2024/04/24 01:39:22;;;;;;;14.57;13.23;;;;;;;;;;5206671;27;20558;-82
2024/04/24 01:41:48;;;;;;;15.37;13.87;;;;;;;;;;5214121;27;20538;-82
2024/04/24 01:44:14;;;;;;;14.00;13.00;;;;;;;;;;5205049;27;20468;-83
2024/04/24 01:46:40;;;;;;;12.60;11.83;;;;;;;;;;5180655;27;20494;-82
2024/04/24 01:49:06;;;;;;;14.83;13.50;;;;;;;;;;5214877;27;20535;-83
2024/04/24 01:51:32;;;;;;;12.98;12.00;;;;;;;;;;5200384;27;20558;-83
2024/04/24 01:53:58;;;;;;;14.70;13.30;;;;;;;;;;5221320;27;20275;-82
2024/04/24 01:56:24;;;;;;;13.60;12.40;;;;;;;;;;5216010;27;20258;-83
2024/04/24 01:58:50;;;;;;;13.30;12.20;;;;;;;;;;5219889;27;20525;-82
2024/04/24 02:01:16;;;;;;;21.00;11.80;;;;;;;;;;5199332;27;20517;-83
2024/04/24 02:03:42;;;;;;;12.73;11.57;;;;;;;;;;5171935;27;20249;-85
2024/04/24 02:06:08;;;;;;;13.57;12.20;;;;;;;;;;5205196;27;20472;-82
2024/04/24 02:08:35;;;;;;;12.37;11.37;;;;;;;;;;5211094;27;20517;-83
2024/04/24 02:11:01;;;;;;;12.57;11.40;;;;;;;;;;5201695;27;20554;-83
2024/04/24 02:13:27;;;;;;;13.53;11.00;;;;;;;;;;5211452;27;20709;-84
2024/04/24 02:15:53;;;;;;;11.37;10.77;;;;;;;;;;5214805;27;20566;-84
2024/04/24 02:18:19;;;;;;;12.00;11.30;;;;;;;;;;5208881;27;20526;-83
2024/04/24 02:20:45;;;;;;;13.20;11.90;;;;;;;;;;5198053;27;20525;-83
2024/04/24 02:23:18;;;;;;;12.05;10.85;;;;;;;;;;5167598;27;20876;-83
2024/04/24 02:25:46;;;;;;;12.23;10.80;;;;;;;;;;5197563;27;20348;-84
2024/04/24 02:28:12;;;;;;;12.13;10.95;;;;;;;;;;5215343;27;20280;-84
2024/04/24 02:30:38;;;;;;;11.88;10.73;;;;;;;;;;5210278;27;20245;-83
2024/04/24 02:33:04;;;;;;;12.53;11.40;;;;;;;;;;5218414;27;20284;-83
2024/04/24 02:35:30;;;;;;;12.02;10.75;;;;;;;;;;5212017;27;20485;-84
2024/04/24 02:37:56;;;;;;;11.93;11.00;;;;;;;;;;5218877;27;20248;-84
2024/04/24 02:40:22;;;;;;;12.48;11.15;;;;;;;;;;5210681;27;20525;-83
2024/04/24 02:42:49;;;;;;;12.77;11.48;;;;;;;;;;5202374;27;20241;-84
2024/04/24 02:45:14;;;;;;;13.00;11.70;;;;;;;;;;5202722;27;20290;-84
2024/04/24 02:47:40;;;;;;;12.03;11.03;;;;;;;;;;5207238;27;20332;-84
2024/04/24 02:50:07;;;;;;;12.27;10.93;;;;;;;;;;5210542;27;20616;-84
2024/04/24 02:52:33;;;;;;;12.40;11.13;;;;;;;;;;5207014;27;20463;-84
2024/04/24 02:54:59;;;;;;;12.13;11.43;;;;;;;;;;5208259;27;20296;-83
2024/04/24 02:57:25;;;;;;;13.20;12.17;;;;;;;;;;5213381;27;20287;-84
2024/04/24 02:59:51;;;;;;;12.97;11.73;;;;;;;;;;5204872;27;20604;-84
2024/04/24 03:02:17;;;;;;;12.95;11.60;;;;;;;;;;5224163;27;20511;-84
2024/04/24 03:04:42;;;;;;;11.80;11.00;;;;;;;;;;5203610;27;20248;-85
2024/04/24 03:07:08;;;;;;;13.53;12.03;;;;;;;;;;5226794;27;20467;-84
2024/04/24 03:09:35;;;;;;;13.20;12.03;;;;;;;;;;5210537;27;20481;-84
2024/04/24 03:12:01;;;;;;;14.60;13.18;;;;;;;;;;5216129;27;20528;-84
2024/04/24 03:14:27;;;;;;;13.67;12.27;;;;;;;;;;5211584;27;20246;-84
2024/04/24 03:16:53;;;;;;;14.75;12.27;;;;;;;;;;5210818;27;20801;-84
2024/04/24 03:19:19;;;;;;;12.57;11.35;;;;;;;;;;5161930;27;20245;-84
2024/04/24 03:21:45;;;;;;;13.50;12.40;;;;;;;;;;5224668;27;20238;-84
2024/04/24 03:24:11;;;;;;;14.85;13.55;;;;;;;;;;5222559;27;20585;-84
2024/04/24 03:26:37;;;;;;;14.93;12.70;;;;;;;;;;5216378;27;20244;-84
2024/04/24 03:29:03;;;;;;;17.53;13.70;;;;;;;;;;5221284;27;21023;-84
2024/04/24 03:31:32;;;;;;;13.60;12.35;;;;;;;;;;5212854;27;20468;-84
2024/04/24 03:33:58;;;;;;;12.80;11.82;;;;;;;;;;5211325;27;20252;-84
2024/04/24 03:36:24;;;;;;;12.53;11.43;;;;;;;;;;5217942;27;20856;-84
2024/04/24 03:38:50;;;;;;;16.20;12.15;;;;;;;;;;5188585;27;20858;-84
2024/04/24 03:41:16;;;;;;;11.97;10.90;;;;;;;;;;5226787;27;20271;-84
2024/04/24 03:43:42;;;;;;;13.70;12.30;;;;;;;;;;5208069;27;20535;-86
2024/04/24 03:46:08;;;;;;;14.23;11.68;;;;;;;;;;5225025;27;20470;-84
2024/04/24 03:48:34;;;;;;;12.02;10.82;;;;;;;;;;5208971;27;20292;-84
2024/04/24 03:51:00;;;;;;;12.60;11.37;;;;;;;;;;5201507;27;20288;-85
2024/04/24 03:53:26;;;;;;;15.47;11.83;;;;;;;;;;5216333;27;20465;-85
2024/04/24 03:55:52;;;;;;;12.53;11.43;;;;;;;;;;5219351;27;20469;-84
2024/04/24 03:58:18;;;;;;;12.80;10.97;;;;;;;;;;5213683;27;21141;-84
2024/04/24 04:00:44;;;;;;;12.90;11.60;;;;;;;;;;5216546;27;20884;-84
2024/04/24 04:03:10;;;;;;;12.43;11.00;;;;;;;;;;5214191;27;20507;-84
2024/04/24 04:05:36;;;;;;;13.20;11.63;;;;;;;;;;5215820;27;20535;-84
2024/04/24 04:08:02;;;;;;;12.32;11.30;;;;;;;;;;5203885;27;20336;-84
2024/04/24 04:10:28;;;;;;;12.90;11.90;;;;;;;;;;5211527;27;20249;-84
2024/04/24 04:12:54;;;;;;;12.27;11.13;;;;;;;;;;5194233;27;20284;-85
2024/04/24 04:15:20;;;;;;;12.23;11.10;;;;;;;;;;5214245;27;20608;-84
2024/04/24 04:17:47;;;;;;;11.30;10.40;;;;;;;;;;5207962;27;20472;-85
2024/04/24 04:20:13;;;;;;;11.48;10.57;;;;;;;;;;5198044;27;20463;-84
2024/04/24 04:22:39;;;;;;;11.88;11.13;;;;;;;;;;5217586;27;20237;-85
2024/04/24 04:25:05;;;;;;;11.45;10.25;;;;;;;;;;5186558;27;20245;-83
2024/04/24 04:27:31;;;;;;;11.20;10.43;;;;;;;;;;5184088;27;20237;-83
2024/04/24 04:30:00;;;;;;;11.38;10.60;;;;;;;;;;5195062;27;20586;-84
2024/04/24 04:32:26;;;;;;;10.75;9.60;;;;;;;;;;5217868;27;20348;-85
2024/04/24 04:34:52;;;;;;;11.02;9.98;;;;;;;;;;5192821;27;20355;-84
2024/04/24 04:37:19;;;;;;;10.75;10.05;;;;;;;;;;5204230;27;20635;-84
2024/04/24 04:39:45;;;;;;;10.70;9.90;;;;;;;;;;5210488;27;20636;-84
2024/04/24 04:42:10;;;;;;;11.45;9.48;;;;;;;;;;5207047;27;20710;-83
2024/04/24 04:44:36;;;;;;;11.20;10.07;;;;;;;;;;5217075;27;20287;-84
2024/04/24 04:47:02;;;;;;;11.20;10.20;;;;;;;;;;5197108;27;20470;-84
2024/04/24 04:49:28;;;;;;;13.25;9.82;;;;;;;;;;5211995;27;20313;-85
2024/04/24 04:51:54;;;;;;;12.03;11.13;;;;;;;;;;5215504;27;20247;-85
2024/04/24 04:54:20;;;;;;;11.40;10.70;;;;;;;;;;5213838;27;20525;-84
2024/04/24 04:56:46;;;;;;;11.87;10.97;;;;;;;;;;5209584;27;20475;-85
2024/04/24 04:59:12;;;;;;;11.43;10.57;;;;;;;;;;5218971;27;20467;-85
2024/04/24 05:01:38;;;;;;;11.77;10.27;;;;;;;;;;5201501;27;20574;-85
2024/04/24 05:04:04;;;;;;;11.13;10.33;;;;;;;;;;5213296;27;20478;-86
2024/04/24 05:06:30;;;;;;;11.15;10.45;;;;;;;;;;5210345;27;20571;-85
2024/04/24 05:08:56;;;;;;;10.80;10.10;;;;;;;;;;5218230;27;20636;-85
2024/04/24 05:11:22;;;;;;;12.02;11.00;;;;;;;;;;5214066;27;20477;-85
2024/04/24 05:13:49;;;;;;;11.03;9.90;;;;;;;;;;5212835;27;20889;-85
2024/04/24 05:16:14;;;;;;;11.77;10.85;;;;;;;;;;5209278;27;20528;-85
2024/04/24 05:18:40;;;;;;;11.37;10.37;;;;;;;;;;5210814;27;20584;-85
2024/04/24 05:21:07;;;;;;;12.10;11.10;;;;;;;;;;5212531;27;20556;-84
2024/04/24 05:23:33;;;;;;;11.85;10.80;;;;;;;;;;5194494;27;20280;-85
2024/04/24 05:29:03;;;;;;;10.98;10.05;;;;;;;;;;5202798;27;20330;-85
2024/04/24 05:29:03;;;;;;;11.90;10.90;;;;;;;;;;5194561;27;20657;-86
2024/04/24 05:31:30;;;;;;;12.50;11.70;;;;;;;;;;5149547;27;20248;-85
2024/04/24 05:33:56;;;;;;;12.80;11.85;;;;;;;;;;5208904;27;20291;-85
2024/04/24 05:36:22;;;;;;;13.47;12.30;;;;;;;;;;5205723;27;20242;-85
2024/04/24 05:38:48;;;;;;;12.95;11.95;;;;;;;;;;5206370;27;20539;-84
2024/04/24 05:41:14;;;;;;;13.15;12.10;;;;;;;;;;5215314;27;20240;-85
2024/04/24 05:43:40;;;;;;;13.23;12.13;;;;;;;;;;5177832;27;20941;-84
2024/04/24 05:46:06;;;;;;;15.30;13.20;;;;;;;;;;5202131;27;21018;-84
2024/04/24 05:48:31;;;;;;;14.10;13.00;;;;;;;;;;5207964;27;20483;-86
2024/04/24 05:50:57;;;;;;;12.20;11.40;;;;;;;;;;5222692;27;20500;-85
2024/04/24 05:53:23;;;;;;;14.50;13.30;;;;;;;;;;5207122;27;20534;-84
2024/04/24 05:55:50;;;;;;;13.90;13.00;;;;;;;;;;5206324;27;20815;-85
2024/04/24 05:58:15;;;;;;;14.13;12.88;;;;;;;;;;5203030;27;20241;-87
2024/04/24 06:00:41;;;;;;;13.73;12.67;;;;;;;;;;5183131;27;20343;-84
2024/04/24 06:03:08;;;;;;;15.23;13.47;;;;;;;;;;5206057;27;20534;-85
2024/04/24 06:05:34;;;;;;;13.95;12.85;;;;;;;;;;5215442;27;20549;-84
2024/04/24 06:08:00;;;;;;;12.35;11.35;;;;;;;;;;5210163;27;20275;-86
2024/04/24 06:10:26;;;;;;;12.50;11.55;;;;;;;;;;5212059;27;20242;-85
2024/04/24 06:12:52;;;;;;;12.88;11.77;;;;;;;;;;5174044;27;20337;-86
2024/04/24 06:15:18;;;;;;;12.43;11.53;;;;;;;;;;5216958;27;20289;-85
2024/04/24 06:17:44;;;;;;;12.65;11.75;;;;;;;;;;5206543;27;20524;-85
2024/04/24 06:20:14;;;;;;;11.77;10.93;;;;;;;;;;5196458;27;20386;-84
2024/04/24 06:22:40;;;;;;;10.18;9.38;;;;;;;;;;5185406;27;20240;-84
2024/04/24 06:25:07;;;;;;;14.87;12.33;;;;;;;;;;5184589;27;20276;-81
2024/04/24 06:27:33;;;;;;;11.00;10.20;;;;;;;;;;5208145;27;20482;-85
2024/04/24 06:29:59;;;;;;;11.23;10.27;;;;;;;;;;5185083;27;20257;-84
2024/04/24 06:32:25;;;;;;;10.27;9.43;;;;;;;;;;5209093;27;20715;-85
2024/04/24 06:34:51;;;;;;;9.70;8.90;;;;;;;;;;5223832;27;20242;-85
2024/04/24 06:37:17;;;;;;;10.77;9.80;;;;;;;;;;5185474;27;20500;-86
2024/04/24 06:39:43;;;;;;;13.57;12.00;;;;;;;;;;5151721;27;21064;-86
2024/04/24 06:42:09;;;;;;;10.30;9.80;;;;;;;;;;5182930;27;20609;-88
2024/04/24 06:44:35;;;;;;;10.02;9.25;;;;;;;;;;5216322;27;20538;-85
2024/04/24 06:47:01;;;;;;;11.60;10.60;;;;;;;;;;5173494;27;20248;-87
2024/04/24 06:49:27;;;;;;;12.43;10.75;;;;;;;;;;5201237;27;20288;-86
2024/04/24 06:51:54;;;;;;;10.95;10.05;;;;;;;;;;5216928;27;20387;-85
2024/04/24 06:54:20;;;;;;;10.40;9.23;;;;;;;;;;5215635;27;20283;-88
2024/04/24 06:56:46;;;;;;;10.13;9.50;;;;;;;;;;5190043;27;20320;-88
2024/04/24 06:59:12;;;;;;;10.40;9.40;;;;;;;;;;5235080;27;20572;-83
2024/04/24 07:01:38;;;;;;;8.37;7.97;;;;;;;;;;5208224;27;20541;-88
2024/04/24 07:04:04;;;;;;;9.75;7.75;;;;;;;;;;5205505;27;20492;-85
2024/04/24 07:06:30;;;;;;;10.80;8.38;;;;;;;;;;5213905;27;20244;-86
2024/04/24 07:08:56;;;;;;;12.63;9.30;;;;;;;;;;5218159;27;20320;-88
2024/04/24 07:11:22;;;;;;;9.47;8.50;;;;;;;;;;5180084;27;20246;-88
2024/04/24 07:13:48;;;;;;;10.82;9.25;;;;;;;;;;5196168;27;20530;-85
2024/04/24 07:16:15;;;;;;;9.32;8.57;;;;;;;;;;5182867;27;20248;-89
2024/04/24 07:18:41;;;;;;;9.00;8.40;;;;;;;;;;5205912;27;20336;-86
2024/04/24 07:21:07;;;;;;;8.25;7.55;;;;;;;;;;5204768;27;20245;-89
2024/04/24 07:23:33;;;;;;;9.47;8.57;;;;;;;;;;5188044;27;20249;-89
2024/04/24 07:25:59;;;;;;;8.00;7.30;;;;;;;;;;5182147;27;20883;-86
2024/04/24 07:28:25;;;;;;;10.00;9.23;;;;;;;;;;5202870;27;20464;-88
2024/04/24 07:30:51;;;;;;;9.30;8.40;;;;;;;;;;5201511;27;20476;-87
2024/04/24 07:33:17;;;;;;;9.43;8.70;;;;;;;;;;5223089;27;20561;-86
2024/04/24 07:35:43;;;;;;;11.43;9.13;;;;;;;;;;5181622;27;20248;-88
2024/04/24 07:38:11;;;;;;;9.73;8.98;;;;;;;;;;5224379;27;20293;-88
2024/04/24 07:40:37;;;;;;;9.55;8.73;;;;;;;;;;5185992;27;20283;-86
2024/04/24 07:43:03;;;;;;;7.05;6.40;;;;;;;;;;5187908;27;20257;-85
2024/04/24 07:45:29;;;;;;;7.20;6.80;;;;;;;;;;5214797;27;20256;-89
2024/04/24 07:47:55;;;;;;;8.25;7.40;;;;;;;;;;5210562;27;20248;-85
2024/04/24 07:50:27;;;;;;;8.70;7.83;;;;;;;;;;5201029;27;20711;-84
2024/04/24 07:52:53;;;;;;;8.43;7.60;;;;;;;;;;5140811;27;20591;-86
2024/04/24 07:55:19;;;;;;;8.30;7.45;;;;;;;;;;5145842;27;20348;-85
2024/04/24 07:57:45;;;;;;;7.50;6.70;;;;;;;;;;5140600;27;20630;-85
2024/04/24 08:00:12;;;;;;;6.13;5.72;;;;;;;;;;5138906;27;20544;-89
2024/04/24 08:02:38;;;;;;;8.48;7.63;;;;;;;;;;5135066;27;20608;-85
2024/04/24 08:05:04;;;;;;;7.90;7.10;;;;;;;;;;5133413;27;20805;-88
2024/04/24 08:07:30;;;;;;;8.23;7.30;;;;;;;;;;5137048;27;20778;-87
2024/04/24 08:09:56;;;;;;;12.30;6.68;;;;;;;;;;5147458;27;20259;-86
2024/04/24 08:12:22;;;;;;;7.63;6.97;;;;;;;;;;5128227;27;20290;-87
2024/04/24 08:14:48;;;;;;;10.87;7.13;;;;;;;;;;5136910;27;20592;-84
2024/04/24 08:17:14;;;;;;;6.00;5.37;;;;;;;;;;5135481;27;20532;-83
2024/04/24 08:19:40;;;;;;;9.10;5.87;;;;;;;;;;5145439;27;20533;-85
2024/04/24 08:22:06;;;;;;;7.32;6.38;;;;;;;;;;5106174;27;20494;-91
2024/04/24 08:24:32;;;;;;;5.82;5.50;;;;;;;;;;5132025;27;20275;-88
2024/04/24 08:26:58;;;;;;;12.23;5.47;;;;;;;;;;5139180;27;20255;-87
2024/04/24 08:29:26;;;;;;;10.37;6.63;;;;;;;;;;5136523;27;20536;-87
2024/04/24 08:31:53;;;;;;;6.57;6.07;;;;;;;;;;5137199;27;20561;-86
2024/04/24 08:34:18;;;;;;;7.45;5.82;;;;;;;;;;5137744;27;20271;-87
2024/04/24 08:36:44;;;;;;;7.77;5.33;;;;;;;;;;5140565;27;20255;-88
2024/04/24 08:39:14;;;;;;;8.53;5.57;;;;;;;;;;5136431;27;20496;-84
2024/04/24 08:41:41;;;;;;;8.52;6.55;;;;;;;;;;5132102;27;22591;-88
2024/04/24 08:44:07;;;;;;;7.72;6.97;;;;;;;;;;5131651;27;20674;-85
2024/04/24 08:46:33;;;;;;;9.57;5.13;;;;;;;;;;5154658;27;20298;-86
2024/04/24 08:49:00;;;;;;;6.18;5.68;;;;;;;;;;5152413;27;20239;-86
2024/04/24 08:51:27;;;;;;;6.07;5.32;;;;;;;;;;5168992;27;20336;-85
2024/04/24 08:54:02;;;;;;;6.38;5.88;;;;;;;;;;5218029;27;20244;-86
2024/04/24 08:56:32;;;;;;;6.80;5.18;;;;;;;;;;5208444;27;20245;-88
2024/04/24 08:59:00;;;;;;;5.68;5.00;;;;;;;;;;5209706;27;20320;-85
2024/04/24 09:01:28;;;;;;;5.82;5.22;;;;;;;;;;5216735;27;20709;-86
2024/04/24 09:03:58;;;;;;;8.57;6.40;;;;;;;;;;5207714;27;20280;-87
2024/04/24 09:06:24;;;;;;;6.40;5.90;;;;;;;;;;5194431;27;20361;-89
2024/04/24 09:08:51;;;;;;;6.28;5.68;;;;;;;;;;5201855;27;20358;-86
2024/04/24 09:11:17;;;;;;;5.75;5.30;;;;;;;;;;5212798;27;20451;-86
2024/04/24 09:13:44;;;;;;;5.80;5.30;;;;;;;;;;5184566;27;20737;-86
2024/04/24 09:16:14;;;;;;;9.95;6.35;;;;;;;;;;5202432;27;20246;-85
2024/04/24 09:18:40;;;;;;;6.60;6.15;;;;;;;;;;5221127;27;20351;-85
2024/04/24 09:21:06;;;;;;;7.90;6.97;;;;;;;;;;5220912;27;20241;-87
2024/04/24 09:23:33;;;;;;;9.53;6.10;;;;;;;;;;5196857;27;20236;-86
2024/04/24 09:25:59;;;;;;;7.55;6.70;;;;;;;;;;5193047;27;20474;-88
2024/04/24 09:28:25;;;;;;;6.15;5.63;;;;;;;;;;5215816;27;20288;-86
2024/04/24 09:30:57;;;;;;;7.35;5.85;;;;;;;;;;5210984;27;20233;-86
2024/04/24 09:33:23;;;;;;;7.80;5.82;;;;;;;;;;5217141;27;20332;-86
2024/04/24 09:35:49;;;;;;;5.60;5.07;;;;;;;;;;5216608;27;20728;-85
2024/04/24 09:38:15;;;;;;;5.90;5.40;;;;;;;;;;5193952;27;20514;-90
2024/04/24 09:40:41;;;;;;;7.53;6.60;;;;;;;;;;5202302;27;20530;-87
2024/04/24 09:43:07;;;;;;;5.38;5.07;;;;;;;;;;5218791;27;20287;-90
2024/04/24 09:45:34;;;;;;;5.82;5.43;;;;;;;;;;5207470;27;20297;-89
2024/04/24 09:48:00;;;;;;;6.18;5.57;;;;;;;;;;5177856;27;20330;-88
2024/04/24 09:50:26;;;;;;;5.57;5.18;;;;;;;;;;5213248;27;20250;-87
2024/04/24 09:52:52;;;;;;;11.80;5.40;;;;;;;;;;5174901;27;20342;-86
2024/04/24 09:55:20;;;;;;;7.18;5.60;;;;;;;;;;5213341;27;20474;-88
2024/04/24 09:57:46;;;;;;;6.95;6.10;;;;;;;;;;5211474;27;20296;-85
2024/04/24 10:00:13;;;;;;;6.93;5.57;;;;;;;;;;5159825;27;20244;-86
2024/04/24 10:02:43;;;;;;;6.15;5.50;;;;;;;;;;5223680;27;20260;-88
2024/04/24 10:05:15;;;;;;;6.70;6.38;;;;;;;;;;5213851;27;20291;-88
2024/04/24 10:07:43;;;;;;;8.25;6.45;;;;;;;;;;5202218;27;20287;-86
2024/04/24 10:10:09;;;;;;;7.38;6.10;;;;;;;;;;5225223;27;20565;-85
2024/04/24 10:12:38;;;;;;;6.50;5.68;;;;;;;;;;5181228;27;20280;-85
2024/04/24 10:15:09;;;;;;;5.75;5.40;;;;;;;;;;5222554;27;20243;-85
2024/04/24 10:17:36;;;;;;;9.82;6.22;;;;;;;;;;5214366;27;20244;-85
2024/04/24 10:20:06;;;;;;;7.75;6.40;;;;;;;;;;5198344;27;20822;-86
2024/04/24 10:22:33;;;;;;;9.15;5.75;;;;;;;;;;5215267;27;20271;-88
2024/04/24 10:25:00;;;;;;;6.57;5.95;;;;;;;;;;5203397;27;20579;-86
2024/04/24 10:27:27;;;;;;;6.70;6.05;;;;;;;;;;5219569;27;20300;-87
2024/04/24 10:29:57;;;;;;;11.80;5.13;;;;;;;;;;5221540;27;20246;-86
2024/04/24 10:32:27;;;;;;;7.63;5.70;;;;;;;;;;5217328;27;20244;-87
2024/04/24 10:34:53;;;;;;;8.27;5.47;;;;;;;;;;5220394;27;20279;-86
2024/04/24 10:37:19;;;;;;;7.68;5.40;;;;;;;;;;5220377;27;20268;-85
2024/04/24 10:39:46;;;;;;;5.80;5.20;;;;;;;;;;5199097;27;20347;-87
2024/04/24 10:42:12;;;;;;;5.40;5.00;;;;;;;;;;5217081;27;20268;-87
2024/04/24 10:44:39;;;;;;;5.65;5.15;;;;;;;;;;5214979;27;20245;-87
2024/04/24 10:47:06;;;;;;;9.10;5.75;;;;;;;;;;5174081;27;20593;-89
2024/04/24 10:49:32;;;;;;;6.80;6.20;;;;;;;;;;5218275;27;20303;-87
2024/04/24 10:51:58;;;;;;;7.33;5.23;;;;;;;;;;5214375;27;20817;-87
2024/04/24 10:54:28;;;;;;;5.90;5.43;;;;;;;;;;5221671;27;20520;-87
2024/04/24 10:56:56;;;;;;;5.88;5.30;;;;;;;;;;5193159;27;20710;-86
2024/04/24 10:59:28;;;;;;;6.55;5.85;;;;;;;;;;5214370;27;20777;-86
2024/04/24 11:01:55;;;;;;;6.87;5.17;;;;;;;;;;5194641;27;20243;-89
2024/04/24 11:04:24;;;;;;;8.57;5.90;;;;;;;;;;5218708;27;20445;-89
2024/04/24 11:06:50;;;;;;;5.47;5.10;;;;;;;;;;5216197;27;20463;-89
2024/04/24 11:09:16;;;;;;;6.50;5.90;;;;;;;;;;5221826;27;20456;-86
2024/04/24 11:11:42;;;;;;;6.43;5.83;;;;;;;;;;5219412;27;20297;-85
2024/04/24 11:14:08;;;;;;;6.67;6.17;;;;;;;;;;5209805;27;20797;-87
2024/04/24 11:16:34;;;;;;;8.63;5.95;;;;;;;;;;5219351;27;20467;-91
2024/04/24 11:19:00;;;;;;;6.97;5.60;;;;;;;;;;5219534;27;20556;-86
2024/04/24 11:21:27;;;;;;;14.93;6.70;;;;;;;;;;5172276;27;20597;-85
2024/04/24 11:23:55;;;;;;;6.20;5.80;;;;;;;;;;5174477;27;20910;-87
2024/04/24 11:26:34;;;;;;;5.80;5.30;;;;;;;;;;5194670;27;20285;-86
2024/04/24 11:29:01;;;;;;;6.78;5.40;;;;;;;;;;5213770;27;20244;-88
2024/04/24 11:31:28;;;;;;;8.23;5.55;;;;;;;;;;5209091;27;20245;-90
2024/04/24 11:33:54;;;;;;;5.82;5.30;;;;;;;;;;5202864;27;20351;-89
2024/04/24 11:36:20;;;;;;;6.22;5.55;;;;;;;;;;5215637;27;20312;-88
2024/04/24 11:38:46;;;;;;;7.17;5.77;;;;;;;;;;5201255;27;20292;-88
2024/04/24 11:41:12;;;;;;;9.32;5.15;;;;;;;;;;5216784;27;21087;-87
2024/04/24 11:43:38;;;;;;;6.03;5.63;;;;;;;;;;5214319;27;20249;-86
2024/04/24 11:46:04;;;;;;;7.57;5.80;;;;;;;;;;5217665;27;20797;-87
2024/04/24 11:48:30;;;;;;;5.83;5.30;;;;;;;;;;5216619;27;20469;-86
2024/04/24 11:50:56;;;;;;;5.95;5.45;;;;;;;;;;5173102;27;20474;-87
2024/04/24 11:53:23;;;;;;;10.57;9.82;;;;;;;;;;5192592;27;20352;-79
2024/04/24 11:55:50;;;;;;;16.30;15.50;;;;;;;;;;5224692;27;20264;-79
2024/04/24 11:58:16;;;;;;;16.23;15.27;;;;;;;;;;5199200;27;20222;-79
2024/04/24 12:00:42;;;;;;;15.70;14.90;;;;;;;;;;5223094;27;20791;-79
2024/04/24 12:03:08;;;;;;;17.52;16.48;;;;;;;;;;5218729;27;20250;-79
2024/04/24 12:05:34;;;;;;;15.57;14.57;;;;;;;;;;5216925;27;20248;-79
2024/04/24 12:08:00;;;;;;;17.03;15.77;;;;;;;;;;5203771;27;20802;-80
2024/04/24 12:10:26;;;;;;;17.03;15.00;;;;;;;;;;5214407;27;20479;-81
2024/04/24 12:12:54;;;;;;;17.42;15.65;;;;;;;;;;5199285;27;20524;-81
2024/04/24 12:15:20;;;;;;;15.23;14.10;;;;;;;;;;5219953;27;20347;-81
2024/04/24 12:17:46;;;;;;;15.95;14.85;;;;;;;;;;5206869;27;20391;-81
2024/04/24 12:20:12;;;;;;;14.00;13.32;;;;;;;;;;5214787;27;20322;-81
2024/04/24 12:22:38;;;;;;;13.80;12.55;;;;;;;;;;5204196;27;20246;-82
2024/04/24 12:25:04;;;;;;;13.97;13.17;;;;;;;;;;5183213;27;20249;-82
2024/04/24 12:27:30;;;;;;;14.60;13.40;;;;;;;;;;5216383;27;20473;-82
2024/04/24 12:29:58;;;;;;;13.00;12.20;;;;;;;;;;5224773;27;20245;-83
2024/04/24 12:32:24;;;;;;;12.35;11.60;;;;;;;;;;5211256;27;20466;-84
2024/04/24 12:34:50;;;;;;;10.60;9.70;;;;;;;;;;5216431;27;20745;-83
2024/04/24 12:37:16;;;;;;;8.40;7.77;;;;;;;;;;5203836;27;20526;-82
2024/04/24 12:39:42;;;;;;;8.80;8.30;;;;;;;;;;5202158;27;20988;-83
2024/04/24 12:42:08;;;;;;;9.90;9.20;;;;;;;;;;5206443;27;20457;-82
2024/04/24 12:44:34;;;;;;;10.32;9.50;;;;;;;;;;5194152;27;20468;-81
2024/04/24 12:47:00;;;;;;;10.57;9.90;;;;;;;;;;5207427;27;20252;-81
2024/04/24 12:49:26;;;;;;;10.67;10.07;;;;;;;;;;5226549;27;20350;-81
2024/04/24 12:51:53;;;;;;;11.37;10.77;;;;;;;;;;5208895;27;20493;-82
2024/04/24 12:54:19;;;;;;;11.45;10.75;;;;;;;;;;5219039;27;20541;-82
2024/04/24 12:56:47;;;;;;;10.10;9.60;;;;;;;;;;5205900;27;20233;-82
2024/04/24 12:59:13;;;;;;;9.50;9.00;;;;;;;;;;5165629;27;20508;-82
2024/04/24 13:01:39;;;;;;;9.23;8.60;;;;;;;;;;5188188;27;20249;-82
2024/04/24 13:04:05;;;;;;;7.50;7.00;;;;;;;;;;5210188;27;20492;-83
2024/04/24 13:06:33;;;;;;;7.60;7.20;;;;;;;;;;5205787;27;20490;-83
2024/04/24 13:08:59;;;;;;;7.85;7.45;;;;;;;;;;5215504;27;20592;-84
2024/04/24 13:11:25;;;;;;;8.02;7.28;;;;;;;;;;5208954;27;20377;-83
2024/04/24 13:13:51;;;;;;;8.13;7.53;;;;;;;;;;5204436;27;20229;-83
2024/04/24 13:16:17;;;;;;;10.27;9.57;;;;;;;;;;5176711;27;20272;-83
2024/04/24 13:18:43;;;;;;;12.00;11.40;;;;;;;;;;5207173;27;20482;-82
2024/04/24 13:21:09;;;;;;;11.93;11.33;;;;;;;;;;5207021;27;20241;-82
2024/04/24 13:23:35;;;;;;;12.83;12.10;;;;;;;;;;5198417;27;20468;-81
2024/04/24 13:26:01;;;;;;;14.13;13.03;;;;;;;;;;5181454;27;20484;-82
2024/04/24 13:28:27;;;;;;;13.00;12.10;;;;;;;;;;5179310;27;20839;-83
2024/04/24 13:30:57;;;;;;;13.00;12.20;;;;;;;;;;5169820;27;20561;-82
2024/04/24 13:33:23;;;;;;;14.15;13.20;;;;;;;;;;5218144;27;20243;-83
2024/04/24 13:35:49;;;;;;;13.17;12.23;;;;;;;;;;5211082;27;20291;-83
2024/04/24 13:38:16;;;;;;;13.53;12.23;;;;;;;;;;5206551;27;20599;-83
2024/04/24 13:40:42;;;;;;;12.45;11.80;;;;;;;;;;5210040;27;20517;-83
2024/04/24 13:43:08;;;;;;;11.50;10.80;;;;;;;;;;5212466;27;20250;-83
2024/04/24 13:45:33;;;;;;;11.17;10.30;;;;;;;;;;5184361;27;20496;-82
2024/04/24 13:47:59;;;;;;;11.00;10.40;;;;;;;;;;5178198;27;21037;-83
2024/04/24 13:50:25;;;;;;;8.20;7.80;;;;;;;;;;5219646;27;20483;-83
2024/04/24 13:52:51;;;;;;;9.02;8.32;;;;;;;;;;5214054;27;20473;-83
2024/04/24 13:55:18;;;;;;;7.07;6.67;;;;;;;;;;5213515;27;20706;-83
2024/04/24 13:57:44;;;;;;;11.65;6.85;;;;;;;;;;5208942;27;20461;-84
2024/04/24 14:00:10;;;;;;;8.90;8.40;;;;;;;;;;5217741;27;20617;-84
2024/04/24 14:02:36;;;;;;;9.13;8.63;;;;;;;;;;5216049;27;20584;-84
2024/04/24 14:05:02;;;;;;;11.90;11.30;;;;;;;;;;5214072;27;20644;-83
2024/04/24 14:07:28;;;;;;;17.43;16.43;;;;;;;;;;5210516;27;20250;-79
2024/04/24 14:09:54;;;;;;;16.90;16.00;;;;;;;;;;5215514;27;20531;-79
2024/04/24 14:12:20;;;;;;;16.20;15.37;;;;;;;;;;5204091;27;20513;-78
2024/04/24 14:14:45;;;;;;;17.03;16.23;;;;;;;;;;5223187;27;20533;-79
2024/04/24 14:17:11;;;;;;;18.40;17.20;;;;;;;;;;5224389;27;21025;-79
2024/04/24 14:19:37;;;;;;;17.00;16.20;;;;;;;;;;5213656;27;20482;-80
2024/04/24 14:22:03;;;;;;;16.57;15.37;;;;;;;;;;5212374;27;20240;-80